createdAt,value
2017-11-08T00:00:15.931Z,6.95
2017-11-08T00:02:43.514Z,6.97
2017-11-08T00:05:11.091Z,6.99
2017-11-08T00:07:38.666Z,7.06
2017-11-08T00:10:06.253Z,6.93
2017-11-08T00:12:33.835Z,7.14
2017-11-08T00:15:01.410Z,7.03
2017-11-08T00:17:28.977Z,7.10
2017-11-08T00:19:58.351Z,7.14
2017-11-08T00:22:25.965Z,7.27
2017-11-08T00:24:53.539Z,7.36
2017-11-08T00:27:21.110Z,7.45
2017-11-08T00:29:48.682Z,7.49
2017-11-08T00:32:16.266Z,7.61
2017-11-08T00:34:43.833Z,7.55
2017-11-08T00:37:11.402Z,7.41
2017-11-08T00:39:39.006Z,7.48
2017-11-08T00:42:06.578Z,7.50
2017-11-08T00:44:34.153Z,7.34
2017-11-08T00:47:01.765Z,7.25
2017-11-08T00:49:29.334Z,7.33
2017-11-08T00:51:56.947Z,7.17
2017-11-08T00:54:24.519Z,7.08
2017-11-08T00:56:52.090Z,7.12
2017-11-08T00:59:19.995Z,7.06
2017-11-08T01:01:47.562Z,6.96
2017-11-08T01:04:15.146Z,7.10
2017-11-08T01:06:42.728Z,6.88
2017-11-08T01:09:10.342Z,6.84
2017-11-08T01:11:38.006Z,6.74
2017-11-08T01:14:05.582Z,6.68
2017-11-08T01:16:33.167Z,6.65
2017-11-08T01:19:00.747Z,6.61
2017-11-08T01:21:28.327Z,6.83
2017-11-08T01:23:55.894Z,6.81
2017-11-08T01:26:23.498Z,6.72
2017-11-08T01:28:51.106Z,6.69
2017-11-08T01:31:18.690Z,6.70
2017-11-08T01:33:46.516Z,6.61
2017-11-08T01:36:14.089Z,6.54
2017-11-08T01:38:42.637Z,6.61
2017-11-08T01:41:15.793Z,6.59
2017-11-08T01:43:43.396Z,6.64
2017-11-08T01:46:10.983Z,6.65
2017-11-08T01:48:38.590Z,6.74
2017-11-08T01:51:06.166Z,6.68
2017-11-08T01:53:33.747Z,6.81
2017-11-08T01:56:01.323Z,6.68
2017-11-08T01:58:28.897Z,6.62
2017-11-08T02:00:56.477Z,6.56
2017-11-08T02:03:24.047Z,6.57
2017-11-08T02:05:51.655Z,6.54
2017-11-08T02:08:19.231Z,6.63
2017-11-08T02:10:46.804Z,6.58
2017-11-08T02:13:14.381Z,6.39
2017-11-08T02:15:41.955Z,6.30
2017-11-08T02:18:15.282Z,6.32
2017-11-08T02:20:42.858Z,6.27
2017-11-08T02:23:10.435Z,6.41
2017-11-08T02:25:38.223Z,6.38
2017-11-08T02:28:05.831Z,6.32
2017-11-08T02:30:33.411Z,6.41
2017-11-08T02:33:00.986Z,6.25
2017-11-08T02:35:28.585Z,6.24
2017-11-08T02:37:56.155Z,6.24
2017-11-08T02:40:23.734Z,6.19
2017-11-08T02:42:51.315Z,6.14
2017-11-08T02:45:18.890Z,6.30
2017-11-08T02:47:46.465Z,6.29
2017-11-08T02:50:14.034Z,6.38
2017-11-08T02:52:41.610Z,6.33
2017-11-08T02:55:14.192Z,6.31
2017-11-08T02:57:41.774Z,6.29
2017-11-08T03:00:09.347Z,6.23
2017-11-08T03:02:52.139Z,6.22
2017-11-08T03:05:20.621Z,6.35
2017-11-08T03:07:48.191Z,6.23
2017-11-08T03:10:15.812Z,6.36
2017-11-08T03:12:43.381Z,6.35
2017-11-08T03:15:10.946Z,6.27
2017-11-08T03:17:38.609Z,6.26
2017-11-08T03:20:06.199Z,6.19
2017-11-08T03:22:33.811Z,6.13
2017-11-08T03:25:01.384Z,6.20
2017-11-08T03:27:28.995Z,6.07
2017-11-08T03:29:56.578Z,6.04
2017-11-08T03:32:24.185Z,5.94
2017-11-08T03:34:51.793Z,6.02
2017-11-08T03:37:19.378Z,5.99
2017-11-08T03:39:47.003Z,5.97
2017-11-08T03:42:14.579Z,5.99
2017-11-08T03:44:42.154Z,6.03
2017-11-08T03:47:09.778Z,6.17
2017-11-08T03:49:37.685Z,6.26
2017-11-08T03:52:05.254Z,6.22
2017-11-08T03:54:33.146Z,6.24
2017-11-08T03:57:00.775Z,6.14
2017-11-08T03:59:28.370Z,6.21
2017-11-08T04:01:55.970Z,6.13
2017-11-08T04:04:23.543Z,6.13
2017-11-08T04:06:51.162Z,6.12
2017-11-08T04:09:18.726Z,6.07
2017-11-08T04:11:46.301Z,6.10
2017-11-08T04:14:13.881Z,6.17
2017-11-08T04:16:41.484Z,6.26
2017-11-08T04:19:09.063Z,6.43
2017-11-08T04:21:36.669Z,6.40
2017-11-08T04:24:04.237Z,6.53
2017-11-08T04:26:31.846Z,6.63
2017-11-08T04:28:59.434Z,6.75
2017-11-08T04:31:27.005Z,6.80
2017-11-08T04:33:54.578Z,6.94
2017-11-08T04:36:22.152Z,6.98
2017-11-08T04:38:50.103Z,7.17
2017-11-08T04:41:17.671Z,7.14
2017-11-08T04:43:45.240Z,7.30
2017-11-08T04:46:12.806Z,7.36
2017-11-08T04:48:40.384Z,7.40
2017-11-08T04:51:07.953Z,7.35
2017-11-08T04:53:35.533Z,7.46
2017-11-08T04:56:03.142Z,7.41
2017-11-08T04:58:30.713Z,7.35
2017-11-08T05:00:58.294Z,7.44
2017-11-08T05:03:25.905Z,7.36
2017-11-08T05:05:53.507Z,7.53
2017-11-08T05:08:21.086Z,7.50
2017-11-08T05:10:48.655Z,7.61
2017-11-08T05:13:16.223Z,7.55
2017-11-08T05:15:43.799Z,7.63
2017-11-08T05:18:11.379Z,7.62
2017-11-08T05:20:38.986Z,7.70
2017-11-08T05:23:06.560Z,7.64
2017-11-08T05:25:34.131Z,7.65
2017-11-08T05:28:01.701Z,7.50
2017-11-08T05:30:29.270Z,7.54
2017-11-08T05:32:56.877Z,7.48
2017-11-08T05:35:24.446Z,7.32
2017-11-08T05:37:52.013Z,7.25
2017-11-08T05:40:20.230Z,7.24
2017-11-08T05:42:47.806Z,7.24
2017-11-08T05:45:15.430Z,7.03
2017-11-08T05:47:43.005Z,7.06
2017-11-08T05:50:10.579Z,6.91
2017-11-08T05:52:38.310Z,6.90
2017-11-08T05:55:05.918Z,6.76
2017-11-08T05:57:33.486Z,6.66
2017-11-08T06:00:01.089Z,6.64
2017-11-08T06:02:28.663Z,6.51
2017-11-08T06:04:56.230Z,6.51
2017-11-08T06:07:23.817Z,6.36
2017-11-08T06:09:51.392Z,6.38
2017-11-08T06:12:18.966Z,6.33
2017-11-08T06:14:46.544Z,6.28
2017-11-08T06:17:14.150Z,6.23
2017-11-08T06:19:41.773Z,6.22
2017-11-08T06:22:09.341Z,6.12
2017-11-08T06:24:36.951Z,6.09
2017-11-08T06:27:04.517Z,6.14
2017-11-08T06:29:32.093Z,6.04
2017-11-08T06:31:59.681Z,6.03
2017-11-08T06:34:27.274Z,5.95
2017-11-08T06:36:54.940Z,5.81
2017-11-08T06:39:22.519Z,5.77
2017-11-08T06:41:50.089Z,5.77
2017-11-08T06:44:17.694Z,5.74
2017-11-08T06:46:45.301Z,5.93
2017-11-08T06:49:12.880Z,5.87
2017-11-08T06:51:40.460Z,5.86
2017-11-08T06:54:08.034Z,5.76
2017-11-08T06:56:35.606Z,5.80
2017-11-08T06:59:03.908Z,5.80
2017-11-08T07:01:31.503Z,5.76
2017-11-08T07:04:02.185Z,5.75
2017-11-08T07:06:29.793Z,5.77
2017-11-08T07:08:57.390Z,5.71
2017-11-08T07:11:24.967Z,5.80
2017-11-08T07:13:52.594Z,5.75
2017-11-08T07:16:20.178Z,5.80
2017-11-08T07:18:47.750Z,5.93
2017-11-08T07:21:15.325Z,5.87
2017-11-08T07:23:42.898Z,5.78
2017-11-08T07:26:10.474Z,5.93
2017-11-08T07:28:38.046Z,5.96
2017-11-08T07:31:05.613Z,5.93
2017-11-08T07:33:33.180Z,5.98
2017-11-08T07:36:00.798Z,5.94
2017-11-08T07:38:28.379Z,5.92
2017-11-08T07:40:55.938Z,5.99
2017-11-08T07:43:23.511Z,6.03
2017-11-08T07:45:51.078Z,6.02
2017-11-08T07:48:18.642Z,5.99
2017-11-08T07:50:46.206Z,6.01
2017-11-08T07:53:13.811Z,6.10
2017-11-08T07:55:46.336Z,6.10
2017-11-08T07:58:13.936Z,6.17
2017-11-08T08:00:41.511Z,6.23
2017-11-08T08:03:09.105Z,6.28
2017-11-08T08:05:36.672Z,6.31
2017-11-08T08:08:04.238Z,6.43
2017-11-08T08:10:34.774Z,6.52
2017-11-08T08:13:04.131Z,6.53
2017-11-08T08:15:31.700Z,6.52
2017-11-08T08:17:59.274Z,6.53
2017-11-08T08:20:26.886Z,6.58
2017-11-08T08:22:54.447Z,6.60
2017-11-08T08:25:22.014Z,6.59
2017-11-08T08:27:50.509Z,6.58
2017-11-08T08:30:18.115Z,6.61
2017-11-08T08:32:45.690Z,6.60
2017-11-08T08:35:13.258Z,6.66
2017-11-08T08:37:40.833Z,6.76
2017-11-08T08:40:08.394Z,6.74
2017-11-08T08:42:35.955Z,6.84
2017-11-08T08:45:03.523Z,6.86
2017-11-08T08:47:31.091Z,6.90
2017-11-08T08:49:58.710Z,7.03
2017-11-08T08:52:26.275Z,7.08
2017-11-08T08:54:53.842Z,7.09
2017-11-08T08:57:21.415Z,7.16
2017-11-08T08:59:49.007Z,7.22
2017-11-08T09:02:19.407Z,7.36
2017-11-08T09:04:47.018Z,7.43
2017-11-08T09:07:14.594Z,7.59
2017-11-08T09:09:42.167Z,7.71
2017-11-08T09:12:09.736Z,7.85
2017-11-08T09:14:37.309Z,7.86
2017-11-08T09:17:04.873Z,7.95
2017-11-08T09:19:33.359Z,7.99
2017-11-08T09:22:00.934Z,8.05
2017-11-08T09:24:35.073Z,8.17
2017-11-08T09:27:04.434Z,8.19
2017-11-08T09:29:34.801Z,8.27
2017-11-08T09:32:02.377Z,8.44
2017-11-08T09:34:29.983Z,8.57
2017-11-08T09:36:57.549Z,8.64
2017-11-08T09:39:25.145Z,8.53
2017-11-08T09:41:55.302Z,8.51
2017-11-08T09:44:22.874Z,8.47
2017-11-08T09:46:50.451Z,8.52
2017-11-08T09:49:18.073Z,8.45
2017-11-08T09:51:45.691Z,8.43
2017-11-08T09:54:13.254Z,8.48
2017-11-08T09:56:40.814Z,8.48
2017-11-08T09:59:08.416Z,8.48
2017-11-08T10:01:41.823Z,8.47
2017-11-08T10:04:09.468Z,8.51
2017-11-08T10:06:39.962Z,8.53
2017-11-08T10:09:07.650Z,8.62
2017-11-08T10:11:39.130Z,8.64
2017-11-08T10:14:06.708Z,8.88
2017-11-08T10:16:34.290Z,8.99
2017-11-08T10:19:02.786Z,8.96
2017-11-08T10:21:30.349Z,9.23
2017-11-08T10:23:57.933Z,9.39
2017-11-08T10:26:25.703Z,9.64
2017-11-08T10:28:53.338Z,9.85
2017-11-08T10:31:20.899Z,9.93
2017-11-08T10:33:48.599Z,9.76
2017-11-08T10:36:16.173Z,9.82
2017-11-08T10:38:43.858Z,9.87
2017-11-08T10:41:11.438Z,9.73
2017-11-08T10:43:38.979Z,9.76
2017-11-08T10:46:06.552Z,9.73
2017-11-08T10:48:34.125Z,9.74
2017-11-08T10:51:01.699Z,9.81
2017-11-08T10:53:30.318Z,9.84
2017-11-08T10:55:57.886Z,9.83
2017-11-08T10:58:25.464Z,9.69
2017-11-08T11:00:53.064Z,9.57
2017-11-08T11:03:26.693Z,9.54
2017-11-08T11:05:54.307Z,9.45
2017-11-08T11:08:21.927Z,9.47
2017-11-08T11:10:49.499Z,9.43
2017-11-08T11:13:17.167Z,9.37
2017-11-08T11:15:44.792Z,9.38
2017-11-08T11:18:12.362Z,9.42
2017-11-08T11:20:40.891Z,9.38
2017-11-08T11:23:08.463Z,9.20
2017-11-08T11:25:37.975Z,9.18
2017-11-08T11:28:05.557Z,9.22
2017-11-08T11:30:34.020Z,9.31
2017-11-08T11:33:01.616Z,9.37
2017-11-08T11:35:29.192Z,9.41
2017-11-08T11:37:56.759Z,9.49
2017-11-08T11:40:24.332Z,9.48
2017-11-08T11:42:51.910Z,9.56
2017-11-08T11:45:19.542Z,9.67
2017-11-08T11:47:49.492Z,9.65
2017-11-08T11:50:17.058Z,9.75
2017-11-08T11:52:44.645Z,9.75
2017-11-08T11:55:12.221Z,9.80
2017-11-08T11:57:39.847Z,9.96
2017-11-08T12:00:07.412Z,9.90
2017-11-08T12:02:34.998Z,9.88
2017-11-08T12:05:03.564Z,9.92
2017-11-08T12:07:33.498Z,10.01
2017-11-08T12:10:03.035Z,10.06
2017-11-08T12:12:30.697Z,10.13
2017-11-08T12:14:58.279Z,10.06
2017-11-08T12:17:25.858Z,10.03
2017-11-08T12:19:53.476Z,10.12
2017-11-08T12:22:21.060Z,10.19
2017-11-08T12:24:49.062Z,10.18
2017-11-08T12:27:20.454Z,10.35
2017-11-08T12:29:48.031Z,10.19
2017-11-08T12:32:15.603Z,10.33
2017-11-08T12:34:43.180Z,10.31
2017-11-08T12:37:10.783Z,10.16
2017-11-08T12:39:38.359Z,10.14
2017-11-08T12:42:11.491Z,10.31
2017-11-08T12:44:44.682Z,10.32
2017-11-08T12:47:12.265Z,10.34
2017-11-08T12:49:39.847Z,10.24
2017-11-08T12:52:07.435Z,10.32
2017-11-08T12:54:35.052Z,10.25
2017-11-08T12:57:02.701Z,10.21
2017-11-08T12:59:30.374Z,10.24
2017-11-08T13:01:57.995Z,10.33
2017-11-08T13:04:25.679Z,10.31
2017-11-08T13:06:53.539Z,9.93
2017-11-08T13:09:21.139Z,10.27
2017-11-08T13:11:48.804Z,10.13
2017-11-08T13:14:16.399Z,10.10
2017-11-08T13:16:43.970Z,9.98
2017-11-08T13:19:11.541Z,9.88
2017-11-08T13:21:39.139Z,9.66
2017-11-08T13:24:06.708Z,9.83
2017-11-08T13:26:34.320Z,9.95
2017-11-08T13:29:01.907Z,9.97
2017-11-08T13:31:29.492Z,10.12
2017-11-08T13:33:57.092Z,10.11
2017-11-08T13:36:24.805Z,10.18
2017-11-08T13:38:56.069Z,10.16
2017-11-08T13:41:23.842Z,10.02
2017-11-08T13:43:51.446Z,10.00
2017-11-08T13:46:19.151Z,9.73
2017-11-08T13:48:46.836Z,9.52
2017-11-08T13:51:15.478Z,9.59
2017-11-08T13:53:45.080Z,9.55
2017-11-08T13:56:13.839Z,9.51
2017-11-08T13:58:41.441Z,9.29
2017-11-08T14:01:09.287Z,9.28
2017-11-08T14:03:37.259Z,9.12
2017-11-08T14:06:04.844Z,9.10
2017-11-08T14:08:32.455Z,9.04
2017-11-08T14:11:00.030Z,9.06
2017-11-08T14:13:27.603Z,9.09
2017-11-08T14:15:55.179Z,9.05
2017-11-08T14:18:22.752Z,9.02
2017-11-08T14:20:50.448Z,9.02
2017-11-08T14:23:18.047Z,9.02
2017-11-08T14:25:45.623Z,8.97
2017-11-08T14:28:13.199Z,9.02
2017-11-08T14:30:40.814Z,8.96
2017-11-08T14:33:08.388Z,9.02
2017-11-08T14:35:38.959Z,8.86
2017-11-08T14:38:06.532Z,8.85
2017-11-08T14:40:34.101Z,8.77
2017-11-08T14:43:01.907Z,8.80
2017-11-08T14:45:29.483Z,8.92
2017-11-08T14:47:57.055Z,8.89
2017-11-08T14:50:24.667Z,8.71
2017-11-08T14:55:51.227Z,8.77
2017-11-08T14:58:18.795Z,8.77
2017-11-08T15:00:46.367Z,8.63
2017-11-08T15:03:13.966Z,8.63
2017-11-08T15:05:41.531Z,8.55
2017-11-08T15:08:09.151Z,8.59
2017-11-08T15:10:36.744Z,8.54
2017-11-08T15:13:04.315Z,8.59
2017-11-08T15:15:31.893Z,8.54
2017-11-08T15:17:59.463Z,8.63
2017-11-08T15:20:28.870Z,8.44
2017-11-08T15:22:56.453Z,8.44
2017-11-08T15:25:24.101Z,8.48
2017-11-08T15:27:51.691Z,8.41
2017-11-08T15:30:24.863Z,8.33
2017-11-08T15:32:52.431Z,8.37
2017-11-08T15:35:20.003Z,8.34
2017-11-08T15:37:47.667Z,8.28
2017-11-08T15:40:33.072Z,8.32
2017-11-08T15:43:00.746Z,8.26
2017-11-08T15:45:28.348Z,8.18
2017-11-08T15:47:55.954Z,8.24
2017-11-08T15:50:23.522Z,8.16
2017-11-08T15:52:51.407Z,8.11
2017-11-08T15:55:19.022Z,8.18
2017-11-08T15:57:46.588Z,8.11
2017-11-08T16:00:14.246Z,8.19
2017-11-08T16:02:43.719Z,8.20
2017-11-08T16:05:11.293Z,8.14
2017-11-08T16:07:38.858Z,8.20
2017-11-08T16:10:06.475Z,8.04
2017-11-08T16:12:34.299Z,8.04
2017-11-08T16:15:02.940Z,8.00
2017-11-08T16:17:33.495Z,8.06
2017-11-08T16:20:01.309Z,8.10
2017-11-08T16:22:28.879Z,8.10
2017-11-08T16:24:56.453Z,8.07
2017-11-08T16:27:24.067Z,8.19
2017-11-08T16:29:51.638Z,8.06
2017-11-08T16:32:20.032Z,8.18
2017-11-08T16:35:02.547Z,8.20
2017-11-08T16:37:30.160Z,8.11
2017-11-08T16:39:57.800Z,8.12
2017-11-08T16:42:25.500Z,8.09
2017-11-08T16:44:53.340Z,8.04
2017-11-08T16:47:21.044Z,7.91
2017-11-08T16:49:48.623Z,7.96
2017-11-08T16:52:16.517Z,8.00
2017-11-08T16:54:44.088Z,7.83
2017-11-08T16:57:11.697Z,7.90
2017-11-08T16:59:39.304Z,7.91
2017-11-08T17:02:06.895Z,7.85
2017-11-08T17:04:34.515Z,7.90
2017-11-08T17:07:02.087Z,7.87
2017-11-08T17:09:29.885Z,7.91
2017-11-08T17:11:57.475Z,7.96
2017-11-08T17:14:25.055Z,7.87
2017-11-08T17:16:52.655Z,7.82
2017-11-08T17:19:20.229Z,7.79
2017-11-08T17:21:47.848Z,7.88
2017-11-08T17:24:15.436Z,7.77
2017-11-08T17:26:43.048Z,7.83
2017-11-08T17:29:14.579Z,7.88
2017-11-08T17:31:43.244Z,7.81
2017-11-08T17:34:10.864Z,7.91
2017-11-08T17:36:38.438Z,7.90
2017-11-08T17:39:06.058Z,7.96
2017-11-08T17:41:36.952Z,7.86
2017-11-08T17:44:18.827Z,7.92
2017-11-08T17:46:46.593Z,7.91
2017-11-08T17:49:14.208Z,7.97
2017-11-08T17:51:41.780Z,7.90
2017-11-08T17:54:09.350Z,7.90
2017-11-08T17:56:37.178Z,7.90
2017-11-08T17:59:04.757Z,7.88
2017-11-08T18:01:32.371Z,7.80
2017-11-08T18:03:59.938Z,7.82
2017-11-08T18:06:27.503Z,7.84
2017-11-08T18:08:55.087Z,7.81
2017-11-08T18:11:22.651Z,7.81
2017-11-08T18:13:50.229Z,7.75
2017-11-08T18:16:17.908Z,7.72
2017-11-08T18:18:45.571Z,7.66
2017-11-08T18:21:13.142Z,7.72
2017-11-08T18:23:40.761Z,7.76
2017-11-08T18:26:09.454Z,7.73
2017-11-08T18:28:37.770Z,7.82
2017-11-08T18:31:05.343Z,7.71
2017-11-08T18:33:33.839Z,7.78
2017-11-08T18:36:01.411Z,7.87
2017-11-08T18:38:29.037Z,7.77
2017-11-08T18:40:56.647Z,7.82
2017-11-08T18:43:24.259Z,7.88
2017-11-08T18:45:51.827Z,7.72
2017-11-08T18:48:19.398Z,7.81
2017-11-08T18:50:46.972Z,7.82
2017-11-08T18:53:14.559Z,7.81
2017-11-08T18:55:42.136Z,7.85
2017-11-08T18:58:10.479Z,7.78
2017-11-08T19:00:38.053Z,7.73
2017-11-08T19:03:05.677Z,7.58
2017-11-08T19:05:33.259Z,7.71
2017-11-08T19:08:00.940Z,7.58
2017-11-08T19:10:28.519Z,7.68
2017-11-08T19:12:56.175Z,7.68
2017-11-08T19:15:23.751Z,7.72
2017-11-08T19:17:51.334Z,7.67
2017-11-08T19:20:18.960Z,7.75
2017-11-08T19:22:46.531Z,7.75
2017-11-08T19:25:14.104Z,7.67
2017-11-08T19:27:41.761Z,7.79
2017-11-08T19:30:09.335Z,7.65
2017-11-08T19:32:37.734Z,7.67
2017-11-08T19:35:05.393Z,7.67
2017-11-08T19:37:32.959Z,7.73
2017-11-08T19:40:00.538Z,7.67
2017-11-08T19:42:28.114Z,7.63
2017-11-08T19:44:55.792Z,7.61
2017-11-08T19:47:23.407Z,7.47
2017-11-08T19:49:51.057Z,7.35
2017-11-08T19:52:18.679Z,7.39
2017-11-08T19:54:46.288Z,7.36
2017-11-08T19:57:13.902Z,7.40
2017-11-08T19:59:41.509Z,7.31
2017-11-08T20:02:09.250Z,7.30
2017-11-08T20:04:36.819Z,7.29
2017-11-08T20:07:04.443Z,7.34
2017-11-08T20:09:32.272Z,7.35
2017-11-08T20:11:59.873Z,7.37
2017-11-08T20:14:27.482Z,7.29
2017-11-08T20:16:55.056Z,7.18
2017-11-08T20:19:22.696Z,7.23
2017-11-08T20:21:50.300Z,7.11
2017-11-08T20:24:17.892Z,7.23
2017-11-08T20:26:45.550Z,7.19
2017-11-08T20:29:13.213Z,7.31
2017-11-08T20:31:40.833Z,7.17
2017-11-08T20:34:08.441Z,7.18
2017-11-08T20:36:36.007Z,7.14
2017-11-08T20:39:04.246Z,7.27
2017-11-08T20:41:32.560Z,7.24
2017-11-08T20:44:00.284Z,7.24
2017-11-08T20:46:27.876Z,7.30
2017-11-08T20:48:55.442Z,7.37
2017-11-08T20:51:23.398Z,7.41
2017-11-08T20:53:50.960Z,7.36
2017-11-08T20:56:18.576Z,7.40
2017-11-08T20:58:46.185Z,7.34
2017-11-08T21:01:13.751Z,7.30
2017-11-08T21:03:41.326Z,7.36
2017-11-08T21:06:08.899Z,7.34
2017-11-08T21:08:36.999Z,7.36
2017-11-08T21:11:04.581Z,7.33
2017-11-08T21:13:32.196Z,7.30
2017-11-08T21:15:59.791Z,7.22
2017-11-08T21:18:27.354Z,7.23
2017-11-08T21:20:54.992Z,7.14
2017-11-08T21:23:22.570Z,7.06
2017-11-08T21:25:50.176Z,7.08
2017-11-08T21:28:17.741Z,7.04
2017-11-08T21:30:45.316Z,7.13
2017-11-08T21:33:12.928Z,7.17
2017-11-08T21:35:40.516Z,7.14
2017-11-08T21:38:08.087Z,7.09
2017-11-08T21:40:35.659Z,7.09
2017-11-08T21:43:03.227Z,7.23
2017-11-08T21:45:30.803Z,7.19
2017-11-08T21:47:58.402Z,7.19
2017-11-08T21:50:26.405Z,7.19
2017-11-08T21:52:54.199Z,7.21
2017-11-08T21:55:21.803Z,7.13
2017-11-08T21:57:49.364Z,7.18
2017-11-08T22:00:16.944Z,7.04
2017-11-08T22:02:44.564Z,7.16
2017-11-08T22:05:12.143Z,7.26
2017-11-08T22:07:39.733Z,7.15
2017-11-08T22:10:07.615Z,7.12
2017-11-08T22:12:35.249Z,7.30
2017-11-08T22:15:02.834Z,7.30
2017-11-08T22:17:30.403Z,7.33
2017-11-08T22:19:57.975Z,7.27
2017-11-08T22:22:26.383Z,7.17
2017-11-08T22:24:53.995Z,7.35
2017-11-08T22:27:21.560Z,7.10
2017-11-08T22:29:49.124Z,7.27
2017-11-08T22:32:16.695Z,7.14
2017-11-08T22:34:44.327Z,7.16
2017-11-08T22:37:11.930Z,7.19
2017-11-08T22:39:39.556Z,7.27
2017-11-08T22:42:07.122Z,7.30
2017-11-08T22:44:34.689Z,7.22
2017-11-08T22:47:02.345Z,7.18
2017-11-08T22:49:30.072Z,7.27
2017-11-08T22:51:57.731Z,7.20
2017-11-08T22:54:25.302Z,7.22
2017-11-08T22:56:52.917Z,7.23
2017-11-08T22:59:21.306Z,7.16
2017-11-08T23:01:48.879Z,7.08
2017-11-08T23:04:16.445Z,7.20
2017-11-08T23:06:45.267Z,7.24
2017-11-08T23:09:12.876Z,7.14
2017-11-08T23:11:40.761Z,7.22
2017-11-08T23:14:08.379Z,7.05
2017-11-08T23:16:35.984Z,7.04
2017-11-08T23:19:03.596Z,7.04
2017-11-08T23:21:31.160Z,6.99
2017-11-08T23:23:58.726Z,7.18
2017-11-08T23:26:26.298Z,7.25
2017-11-08T23:28:53.872Z,7.15
2017-11-08T23:31:21.445Z,7.29
2017-11-08T23:33:49.019Z,7.19
2017-11-08T23:36:16.586Z,7.26
2017-11-08T23:38:44.155Z,7.02
2017-11-08T23:41:12.530Z,7.06
2017-11-08T23:43:40.105Z,7.10
2017-11-08T23:46:07.676Z,7.28
2017-11-08T23:48:35.278Z,7.41
2017-11-08T23:51:04.747Z,7.35
2017-11-08T23:53:32.363Z,7.23
2017-11-08T23:56:01.835Z,7.09
2017-11-08T23:58:29.435Z,7.18
